createdAt,value
2023-04-11T00:48:28.280Z,4.88
2023-04-11T00:51:15.373Z,4.95
2023-04-11T00:54:01.377Z,5.30
2023-04-11T00:56:46.506Z,5.40
2023-04-11T00:59:32.441Z,4.68
2023-04-11T01:46:35.212Z,4.88
2023-04-11T01:49:29.964Z,4.80
2023-04-11T01:52:15.230Z,4.65
2023-04-11T01:55:00.267Z,5.22
2023-04-11T01:57:45.565Z,4.43
2023-04-11T02:46:16.326Z,4.95
2023-04-11T02:49:03.380Z,4.72
2023-04-11T02:51:48.632Z,4.55
2023-04-11T02:54:33.840Z,4.82
2023-04-11T02:57:20.190Z,5.30
2023-04-11T03:47:21.405Z,4.45
2023-04-11T03:50:07.816Z,5.20
2023-04-11T03:52:59.496Z,4.65
2023-04-11T03:55:45.853Z,5.03
2023-04-11T03:58:34.689Z,4.27
2023-04-11T04:48:27.875Z,4.22
2023-04-11T04:51:13.146Z,4.40
2023-04-11T04:53:59.719Z,4.70
2023-04-11T04:56:48.210Z,4.57
2023-04-11T04:59:33.988Z,4.67
2023-04-11T05:02:27.733Z,5.10
2023-04-11T05:05:15.774Z,4.65
2023-04-11T05:08:01.293Z,4.68
2023-04-11T05:10:47.584Z,4.45
2023-04-11T05:13:34.192Z,3.90
2023-04-11T05:16:21.857Z,4.40
2023-04-11T05:19:07.116Z,4.32
2023-04-11T05:21:54.466Z,4.70
2023-04-11T05:24:40.294Z,4.13
2023-04-11T05:27:29.217Z,4.67
2023-04-11T05:30:15.256Z,4.68
2023-04-11T05:33:01.096Z,4.47
2023-04-11T05:35:46.399Z,4.10
2023-04-11T05:38:34.676Z,4.57
2023-04-11T05:41:20.144Z,4.30
2023-04-11T05:44:05.351Z,4.43
2023-04-11T05:46:50.881Z,4.40
2023-04-11T05:49:36.945Z,4.53
2023-04-11T05:52:21.764Z,4.18
2023-04-11T05:55:07.275Z,4.20
2023-04-11T05:57:52.114Z,4.93
2023-04-11T06:00:40.032Z,4.50
2023-04-11T06:03:25.327Z,3.80
2023-04-11T06:06:10.306Z,4.18
2023-04-11T06:08:55.419Z,4.43
2023-04-11T06:11:40.648Z,4.50
2023-04-11T06:14:25.793Z,4.35
2023-04-11T06:17:10.653Z,4.20
2023-04-11T06:19:55.551Z,4.50
2023-04-11T06:22:41.278Z,4.27
2023-04-11T06:25:26.555Z,4.57
2023-04-11T06:28:11.326Z,4.30
2023-04-11T06:30:56.200Z,4.70
2023-04-11T06:33:41.286Z,4.43
2023-04-11T06:36:27.140Z,4.70
2023-04-11T06:39:13.029Z,4.13
2023-04-11T06:41:58.249Z,3.80
2023-04-11T06:44:45.050Z,4.85
2023-04-11T06:47:30.322Z,5.22
2023-04-11T06:50:15.235Z,3.90
2023-04-11T06:53:00.107Z,3.95
2023-04-11T06:55:48.448Z,4.20
2023-04-11T06:58:33.370Z,4.18
2023-04-11T07:01:20.574Z,4.35
2023-04-11T07:04:06.562Z,4.13
2023-04-11T07:06:51.646Z,3.97
2023-04-11T07:09:36.652Z,3.90
2023-04-11T07:12:21.992Z,4.10
2023-04-11T07:15:07.229Z,4.65
2023-04-11T07:17:52.999Z,4.40
2023-04-11T07:20:37.994Z,4.43
2023-04-11T07:23:23.835Z,4.15
2023-04-11T07:26:10.708Z,4.35
2023-04-11T07:28:55.588Z,4.28
2023-04-11T07:31:40.776Z,4.10
2023-04-11T07:34:26.315Z,4.45
2023-04-11T07:37:12.539Z,4.00
2023-04-11T07:39:57.716Z,4.07
2023-04-11T07:42:43.134Z,4.40
2023-04-11T07:45:27.955Z,4.00
2023-04-11T07:48:13.166Z,3.67
2023-04-11T07:50:58.142Z,4.18
2023-04-11T07:53:42.960Z,3.53
2023-04-11T07:56:27.821Z,4.03
2023-04-11T07:59:15.797Z,4.70
2023-04-11T08:02:01.446Z,3.22
2023-04-11T08:04:46.928Z,4.70
2023-04-11T08:07:32.254Z,4.03
2023-04-11T08:10:17.067Z,4.53
2023-04-11T08:13:02.041Z,3.60
2023-04-11T08:15:47.538Z,3.90
2023-04-11T08:18:32.979Z,4.22
2023-04-11T08:21:17.737Z,3.53
2023-04-11T08:24:02.876Z,3.53
2023-04-11T08:26:47.850Z,4.17
2023-04-11T08:29:32.798Z,4.55
2023-04-11T08:32:17.687Z,3.88
2023-04-11T08:35:02.635Z,4.60
2023-04-11T08:37:49.432Z,4.38
2023-04-11T08:40:34.453Z,3.87
2023-04-11T08:43:19.371Z,4.05
2023-04-11T08:46:05.065Z,4.55
2023-04-11T08:48:51.021Z,4.43
2023-04-11T08:51:36.756Z,3.38
2023-04-11T08:54:21.715Z,4.13
2023-04-11T08:57:06.764Z,4.00
2023-04-11T08:59:53.406Z,3.13
2023-04-11T09:03:14.420Z,4.03
2023-04-11T09:06:08.929Z,3.92
2023-04-11T09:08:53.870Z,4.13
2023-04-11T09:11:51.875Z,4.00
2023-04-11T09:14:37.328Z,3.72
2023-04-11T09:17:22.327Z,3.53
2023-04-11T09:20:17.833Z,3.55
2023-04-11T09:23:02.700Z,3.60
2023-04-11T09:25:47.669Z,3.63
2023-04-11T09:28:42.969Z,3.80
2023-04-11T09:31:44.849Z,3.53
2023-04-11T09:34:29.846Z,3.70
2023-04-11T09:37:15.554Z,3.50
2023-04-11T09:40:00.918Z,3.78
2023-04-11T09:42:47.066Z,3.13
2023-04-11T09:45:38.217Z,4.05
2023-04-11T09:48:43.461Z,4.03
2023-04-11T09:51:35.649Z,3.63
2023-04-11T09:54:22.532Z,3.60
2023-04-11T09:57:08.398Z,4.45
2023-04-11T09:59:54.060Z,3.45
2023-04-11T10:02:38.961Z,3.35
2023-04-11T10:05:28.504Z,3.50
2023-04-11T10:08:17.269Z,3.97
2023-04-11T10:11:07.301Z,3.75
2023-04-11T10:13:52.090Z,4.38
2023-04-11T10:16:38.427Z,3.90
2023-04-11T10:19:24.019Z,3.63
2023-04-11T10:22:09.436Z,2.83
2023-04-11T10:25:13.569Z,3.67
2023-04-11T10:28:04.099Z,3.47
2023-04-11T10:30:59.517Z,3.05
2023-04-11T10:34:11.495Z,2.50
2023-04-11T10:37:07.800Z,2.67
2023-04-11T10:40:02.190Z,3.40
2023-04-11T10:42:48.384Z,3.05
2023-04-11T10:45:39.566Z,3.50
2023-04-11T10:48:24.334Z,3.17
2023-04-11T10:51:22.685Z,3.78
2023-04-11T10:54:23.763Z,3.47
2023-04-11T10:57:10.114Z,3.45
2023-04-11T10:59:58.328Z,3.72
2023-04-11T11:02:43.741Z,3.57
2023-04-11T11:05:29.433Z,3.72
2023-04-11T11:08:14.341Z,3.38
2023-04-11T11:11:03.269Z,3.83
2023-04-11T11:13:52.624Z,3.42
2023-04-11T11:16:37.557Z,3.30
2023-04-11T11:19:22.966Z,3.38
2023-04-11T11:22:14.212Z,3.00
2023-04-11T11:25:07.007Z,2.88
2023-04-11T11:28:18.124Z,4.28
2023-04-11T11:31:04.003Z,3.40
2023-04-11T11:33:49.129Z,3.50
2023-04-11T11:36:35.570Z,3.40
2023-04-11T11:39:22.001Z,3.58
2023-04-11T11:42:08.169Z,3.00
2023-04-11T11:44:53.115Z,3.20
2023-04-11T11:47:42.649Z,3.15
2023-04-11T11:50:28.835Z,4.20
2023-04-11T11:53:14.955Z,3.45
2023-04-11T11:56:00.271Z,3.38
2023-04-11T11:58:45.817Z,2.70
2023-04-11T12:01:32.225Z,3.15
2023-04-11T12:04:19.093Z,2.83
2023-04-11T12:07:08.141Z,3.08
2023-04-11T12:10:11.635Z,3.10
2023-04-11T12:12:57.053Z,3.07
2023-04-11T12:15:43.771Z,3.60
2023-04-11T12:18:28.766Z,2.92
2023-04-11T12:21:14.356Z,3.45
2023-04-11T12:23:59.276Z,2.92
2023-04-11T12:27:05.457Z,3.03
2023-04-11T12:29:51.280Z,2.92
2023-04-11T12:32:36.727Z,3.30
2023-04-11T12:35:22.095Z,3.55
2023-04-11T12:38:08.000Z,2.90
2023-04-11T12:41:13.809Z,2.63
2023-04-11T12:44:02.109Z,2.63
2023-04-11T12:46:47.207Z,3.70
2023-04-11T12:49:32.442Z,3.20
2023-04-11T12:52:17.585Z,2.58
2023-04-11T12:55:04.060Z,3.13
2023-04-11T12:57:48.967Z,2.83
2023-04-11T13:00:34.009Z,2.67
2023-04-11T13:03:18.966Z,2.83
2023-04-11T13:06:04.076Z,2.85
2023-04-11T13:08:48.808Z,2.87
2023-04-11T13:11:33.710Z,2.85
2023-04-11T13:14:19.091Z,2.35
2023-04-11T13:17:04.788Z,3.03
2023-04-11T13:19:49.965Z,3.03
2023-04-11T13:22:35.009Z,2.60
2023-04-11T13:25:19.887Z,3.00
2023-04-11T13:28:04.702Z,2.65
2023-04-11T13:30:50.074Z,2.47
2023-04-11T13:33:34.817Z,3.03
2023-04-11T13:36:19.752Z,3.73
2023-04-11T13:39:05.946Z,3.17
2023-04-11T13:41:51.109Z,3.35
2023-04-11T13:44:36.126Z,3.35
2023-04-11T13:47:21.425Z,3.58
2023-04-11T13:50:07.357Z,3.40
2023-04-11T13:52:52.278Z,3.58
2023-04-11T13:55:37.119Z,3.50
2023-04-11T13:58:22.204Z,2.90
2023-04-11T14:01:10.864Z,3.53
2023-04-11T14:03:56.255Z,2.73
2023-04-11T14:06:42.123Z,2.90
2023-04-11T14:09:27.625Z,3.10
2023-04-11T14:12:12.984Z,3.25
2023-04-11T14:14:57.769Z,3.85
2023-04-11T14:17:43.962Z,2.63
2023-04-11T14:20:29.265Z,4.20
2023-04-11T14:23:16.402Z,2.72
2023-04-11T14:26:01.789Z,3.22
2023-04-11T14:28:47.043Z,2.35
2023-04-11T14:31:32.277Z,3.33
2023-04-11T14:34:21.144Z,3.05
2023-04-11T14:37:06.601Z,3.15
2023-04-11T14:39:52.076Z,3.75
2023-04-11T14:42:37.800Z,3.65
2023-04-11T14:45:22.752Z,2.63
2023-04-11T14:48:08.087Z,3.45
2023-04-11T14:50:54.767Z,2.67
2023-04-11T14:53:40.333Z,3.15
2023-04-11T14:56:25.953Z,2.65
2023-04-11T14:59:11.436Z,2.60
2023-04-11T15:01:56.590Z,3.53
2023-04-11T15:04:41.811Z,3.05
2023-04-11T15:07:27.071Z,2.90
2023-04-11T15:10:13.084Z,2.72
2023-04-11T15:12:58.176Z,3.00
2023-04-11T15:15:43.215Z,2.30
2023-04-11T15:18:29.376Z,2.58
2023-04-11T15:21:14.565Z,3.08
2023-04-11T15:23:59.364Z,2.92
2023-04-11T15:26:47.622Z,2.67
2023-04-11T15:29:33.068Z,2.65
2023-04-11T15:32:18.129Z,3.42
2023-04-11T15:35:02.945Z,3.13
2023-04-11T15:37:48.203Z,2.75
2023-04-11T15:40:33.129Z,3.70
2023-04-11T15:43:18.860Z,2.88
2023-04-11T15:46:04.221Z,2.50
2023-04-11T15:48:49.242Z,2.72
2023-04-11T15:51:33.994Z,3.47
2023-04-11T15:54:19.007Z,3.47
2023-04-11T15:57:04.240Z,2.65
2023-04-11T15:59:49.072Z,2.83
2023-04-11T16:02:34.646Z,3.00
2023-04-11T16:05:20.923Z,2.60
2023-04-11T16:08:06.552Z,3.23
2023-04-11T16:10:51.423Z,2.60
2023-04-11T16:13:36.451Z,2.95
2023-04-11T16:16:21.786Z,2.47
2023-04-11T16:19:07.516Z,2.50
2023-04-11T16:21:52.740Z,3.30
2023-04-11T16:24:37.737Z,3.30
2023-04-11T16:27:23.011Z,3.00
2023-04-11T16:30:09.413Z,3.20
2023-04-11T16:32:54.761Z,2.53
2023-04-11T16:35:40.328Z,3.10
2023-04-11T16:38:25.386Z,2.67
2023-04-11T16:41:10.301Z,2.70
2023-04-11T16:43:56.092Z,2.00
2023-04-11T16:46:41.970Z,2.67
2023-04-11T16:49:27.355Z,2.33
2023-04-11T16:52:12.560Z,2.80
2023-04-11T16:54:58.096Z,2.60
2023-04-11T16:57:43.824Z,2.90
2023-04-11T17:00:29.274Z,2.58
2023-04-11T17:03:17.490Z,2.70
2023-04-11T17:06:02.750Z,2.42
2023-04-11T17:08:47.793Z,3.03
2023-04-11T17:11:33.250Z,2.72
2023-04-11T17:14:18.774Z,2.65
2023-04-11T17:17:04.347Z,3.50
2023-04-11T17:19:49.691Z,3.00
2023-04-11T17:22:36.069Z,2.17
2023-04-11T17:25:21.278Z,2.72
2023-04-11T17:28:06.309Z,3.30
2023-04-11T17:30:52.303Z,2.70
2023-04-11T17:33:37.319Z,3.10
2023-04-11T17:36:22.466Z,2.45
2023-04-11T17:39:07.744Z,2.42
2023-04-11T17:41:53.078Z,2.60
2023-04-11T17:44:38.048Z,2.60
2023-04-11T17:47:23.339Z,1.75
2023-04-11T17:50:10.130Z,2.65
2023-04-11T17:52:56.331Z,2.42
2023-04-11T17:55:41.821Z,2.90
2023-04-11T17:58:27.538Z,2.77
2023-04-11T18:01:12.843Z,2.88
2023-04-11T18:04:00.046Z,2.60
2023-04-11T18:06:48.405Z,2.72
2023-04-11T18:09:33.868Z,3.42
2023-04-11T18:12:19.858Z,3.07
2023-04-11T18:15:14.960Z,1.88
2023-04-11T18:18:00.142Z,2.60
2023-04-11T18:20:45.396Z,2.75
2023-04-11T18:23:31.119Z,3.33
2023-04-11T18:26:16.615Z,2.77
2023-04-11T18:29:01.884Z,2.90
2023-04-11T18:31:47.246Z,2.85
2023-04-11T18:34:32.568Z,2.83
2023-04-11T18:37:18.089Z,2.13
2023-04-11T18:40:16.664Z,2.67
2023-04-11T18:43:02.570Z,2.05
2023-04-11T18:45:49.066Z,2.53
2023-04-11T18:48:34.660Z,2.25
2023-04-11T18:51:20.541Z,2.72
2023-04-11T18:54:05.793Z,2.43
2023-04-11T18:56:53.742Z,2.22
2023-04-11T18:59:43.415Z,1.95
2023-04-11T19:02:29.802Z,2.60
2023-04-11T19:05:15.907Z,2.50
2023-04-11T19:08:01.666Z,2.30
2023-04-11T19:10:46.651Z,2.58
2023-04-11T19:13:31.761Z,2.30
2023-04-11T19:16:17.158Z,2.17
2023-04-11T19:19:02.529Z,2.83
2023-04-11T19:21:48.755Z,2.80
2023-04-11T19:24:34.712Z,2.75
2023-04-11T19:27:21.512Z,2.28
2023-04-11T19:30:08.489Z,2.70
2023-04-11T19:32:54.025Z,2.05
2023-04-11T19:35:40.789Z,2.43
2023-04-11T19:38:26.302Z,2.33
2023-04-11T19:41:16.090Z,2.65
2023-04-11T19:44:01.177Z,2.20
2023-04-11T19:46:46.662Z,2.45
2023-04-11T19:49:32.058Z,2.40
2023-04-11T19:52:17.917Z,2.35
2023-04-11T19:55:03.594Z,1.95
2023-04-11T19:57:48.827Z,2.15
2023-04-11T20:00:36.122Z,1.60
2023-04-11T20:03:21.769Z,2.50
2023-04-11T20:06:07.452Z,2.58
2023-04-11T20:08:53.588Z,1.80
2023-04-11T20:11:39.190Z,2.75
2023-04-11T20:14:24.474Z,2.70
2023-04-11T20:17:09.578Z,2.37
2023-04-11T20:19:55.615Z,2.38
2023-04-11T20:22:40.803Z,5.38
2023-04-11T20:25:26.138Z,2.60
2023-04-11T20:28:11.264Z,2.17
2023-04-11T20:30:56.797Z,2.40
2023-04-11T20:33:44.090Z,1.95
2023-04-11T20:36:29.416Z,2.70
2023-04-11T20:39:14.300Z,1.63
2023-04-11T20:42:01.301Z,2.03
2023-04-11T20:44:47.254Z,2.43
2023-04-11T20:47:37.712Z,2.00
2023-04-11T20:50:26.192Z,2.00
2023-04-11T20:53:11.460Z,2.42
2023-04-11T20:55:56.284Z,2.20
2023-04-11T20:58:41.411Z,2.70
2023-04-11T21:01:26.581Z,1.70
2023-04-11T21:04:13.046Z,1.75
2023-04-11T21:06:58.573Z,1.60
2023-04-11T21:09:43.885Z,1.83
2023-04-11T21:12:29.212Z,2.57
2023-04-11T21:15:14.009Z,1.83
2023-04-11T21:17:59.002Z,2.78
2023-04-11T21:20:44.233Z,2.08
2023-04-11T21:23:29.165Z,2.17
2023-04-11T21:26:14.564Z,2.17
2023-04-11T21:28:59.979Z,1.83
2023-04-11T21:31:45.572Z,2.33
2023-04-11T21:34:31.091Z,2.88
2023-04-11T21:37:16.223Z,2.13
2023-04-11T21:40:01.712Z,1.70
2023-04-11T21:42:46.909Z,2.05
2023-04-11T21:45:32.287Z,2.28
2023-04-11T21:48:17.626Z,2.03
2023-04-11T21:51:03.659Z,2.10
2023-04-11T21:53:49.023Z,2.17
2023-04-11T21:56:34.452Z,2.10
2023-04-11T21:59:21.079Z,2.50
2023-04-11T22:02:06.656Z,2.53
2023-04-11T22:05:04.824Z,2.30
2023-04-11T22:07:51.216Z,2.60
2023-04-11T22:10:46.609Z,2.38
2023-04-11T22:13:32.707Z,2.03
2023-04-11T22:16:18.754Z,2.20
2023-04-11T22:19:04.133Z,1.77
2023-04-11T22:21:55.717Z,2.40
2023-04-11T22:24:40.833Z,2.05
2023-04-11T22:27:29.458Z,1.92
2023-04-11T22:30:14.716Z,2.28
2023-04-11T22:33:01.880Z,1.70
2023-04-11T22:35:47.676Z,2.90
2023-04-11T22:38:33.463Z,2.60
2023-04-11T22:41:18.910Z,2.08
2023-04-11T22:44:04.512Z,2.10
2023-04-11T22:47:21.735Z,2.42
2023-04-11T22:50:07.033Z,2.13
2023-04-11T22:52:52.013Z,1.73
2023-04-11T22:55:37.001Z,2.08
2023-04-11T22:58:21.896Z,2.08
2023-04-11T23:48:28.629Z,2.13
2023-04-11T23:51:14.266Z,1.73
2023-04-11T23:54:00.061Z,2.05
2023-04-11T23:56:45.589Z,1.80
2023-04-11T23:59:33.518Z,2.17
